sensor_id;sensor_type;location;lat;lon;timestamp;temperature;humidity
3942;DHT22;1985;48.592;8.850;2022-11-15T00:00:28;8.50;99.90
3942;DHT22;1985;48.592;8.850;2022-11-15T00:02:54;8.50;99.90
3942;DHT22;1985;48.592;8.850;2022-11-15T00:05:20;8.40;99.90
3942;DHT22;1985;48.592;8.850;2022-11-15T00:07:46;8.30;99.90
3942;DHT22;1985;48.592;8.850;2022-11-15T00:10:12;8.30;99.90
3942;DHT22;1985;48.592;8.850;2022-11-15T00:12:38;8.20;99.90
3942;DHT22;1985;48.592;8.850;2022-11-15T00:15:04;8.10;99.90
3942;DHT22;1985;48.592;8.850;2022-11-15T00:17:29;8.00;99.90
3942;DHT22;1985;48.592;8.850;2022-11-15T00:19:55;7.80;99.90
3942;DHT22;1985;48.592;8.850;2022-11-15T00:22:21;7.70;99.90
3942;DHT22;1985;48.592;8.850;2022-11-15T00:24:47;7.60;99.90
3942;DHT22;1985;48.592;8.850;2022-11-15T00:27:13;7.40;99.90
3942;DHT22;1985;48.592;8.850;2022-11-15T00:29:38;7.20;99.90
3942;DHT22;1985;48.592;8.850;2022-11-15T00:32:09;7.10;99.90
3942;DHT22;1985;48.592;8.850;2022-11-15T00:34:35;7.00;99.90
3942;DHT22;1985;48.592;8.850;2022-11-15T00:37:00;7.10;99.90
3942;DHT22;1985;48.592;8.850;2022-11-15T00:39:26;7.20;99.90
3942;DHT22;1985;48.592;8.850;2022-11-15T00:41:51;7.20;99.90
3942;DHT22;1985;48.592;8.850;2022-11-15T00:44:17;7.30;99.90
3942;DHT22;1985;48.592;8.850;2022-11-15T00:46:43;7.40;99.90
3942;DHT22;1985;48.592;8.850;2022-11-15T00:49:08;7.40;99.90
3942;DHT22;1985;48.592;8.850;2022-11-15T00:51:34;7.50;99.90
3942;DHT22;1985;48.592;8.850;2022-11-15T00:53:59;7.50;99.90
3942;DHT22;1985;48.592;8.850;2022-11-15T00:56:25;7.50;99.90
3942;DHT22;1985;48.592;8.850;2022-11-15T00:58:50;7.60;99.90
3942;DHT22;1985;48.592;8.850;2022-11-15T01:01:17;7.70;99.90
3942;DHT22;1985;48.592;8.850;2022-11-15T01:03:43;7.80;99.90
3942;DHT22;1985;48.592;8.850;2022-11-15T01:06:08;7.80;99.90
3942;DHT22;1985;48.592;8.850;2022-11-15T01:08:34;7.80;99.90
3942;DHT22;1985;48.592;8.850;2022-11-15T01:11:04;7.70;99.90
3942;DHT22;1985;48.592;8.850;2022-11-15T01:13:32;7.70;99.90
3942;DHT22;1985;48.592;8.850;2022-11-15T01:16:04;7.70;99.90
3942;DHT22;1985;48.592;8.850;2022-11-15T01:18:30;7.70;99.90
3942;DHT22;1985;48.592;8.850;2022-11-15T01:20:56;7.70;99.90
3942;DHT22;1985;48.592;8.850;2022-11-15T01:23:21;7.80;99.90
3942;DHT22;1985;48.592;8.850;2022-11-15T01:25:47;7.80;99.90
3942;DHT22;1985;48.592;8.850;2022-11-15T01:28:12;7.80;99.90
3942;DHT22;1985;48.592;8.850;2022-11-15T01:30:38;7.80;99.90
3942;DHT22;1985;48.592;8.850;2022-11-15T01:33:04;7.90;99.90
3942;DHT22;1985;48.592;8.850;2022-11-15T01:35:29;7.90;99.90
3942;DHT22;1985;48.592;8.850;2022-11-15T01:37:55;7.70;99.90
3942;DHT22;1985;48.592;8.850;2022-11-15T01:40:20;7.70;99.90
3942;DHT22;1985;48.592;8.850;2022-11-15T01:42:46;7.70;99.90
3942;DHT22;1985;48.592;8.850;2022-11-15T01:45:15;7.80;99.90
3942;DHT22;1985;48.592;8.850;2022-11-15T01:47:45;7.80;99.90
3942;DHT22;1985;48.592;8.850;2022-11-15T01:50:16;7.90;99.90
3942;DHT22;1985;48.592;8.850;2022-11-15T01:52:43;7.90;99.90
3942;DHT22;1985;48.592;8.850;2022-11-15T01:55:19;8.00;99.90
3942;DHT22;1985;48.592;8.850;2022-11-15T01:57:47;7.90;99.90
3942;DHT22;1985;48.592;8.850;2022-11-15T02:00:14;8.00;99.90
3942;DHT22;1985;48.592;8.850;2022-11-15T02:02:39;8.00;99.90
3942;DHT22;1985;48.592;8.850;2022-11-15T02:05:06;8.00;99.90
3942;DHT22;1985;48.592;8.850;2022-11-15T02:07:32;7.80;99.90
3942;DHT22;1985;48.592;8.850;2022-11-15T02:10:10;7.80;99.90
3942;DHT22;1985;48.592;8.850;2022-11-15T02:12:36;7.90;99.90
3942;DHT22;1985;48.592;8.850;2022-11-15T02:15:03;7.90;99.90
3942;DHT22;1985;48.592;8.850;2022-11-15T02:20:38;7.90;99.90
3942;DHT22;1985;48.592;8.850;2022-11-15T02:25:44;8.00;99.90
3942;DHT22;1985;48.592;8.850;2022-11-15T02:42:28;8.00;99.90
3942;DHT22;1985;48.592;8.850;2022-11-15T02:45:29;8.00;99.90
3942;DHT22;1985;48.592;8.850;2022-11-15T02:47:59;8.00;99.90
3942;DHT22;1985;48.592;8.850;2022-11-15T02:50:29;8.00;99.90
3942;DHT22;1985;48.592;8.850;2022-11-15T02:52:55;8.00;99.90
3942;DHT22;1985;48.592;8.850;2022-11-15T02:55:33;8.10;99.90
3942;DHT22;1985;48.592;8.850;2022-11-15T03:03:49;8.30;99.90
3942;DHT22;1985;48.592;8.850;2022-11-15T03:09:04;8.30;99.90
3942;DHT22;1985;48.592;8.850;2022-11-15T03:11:38;8.20;99.90
3942;DHT22;1985;48.592;8.850;2022-11-15T03:14:23;8.00;99.90
3942;DHT22;1985;48.592;8.850;2022-11-15T03:19:49;7.70;99.90
3942;DHT22;1985;48.592;8.850;2022-11-15T03:22:19;7.70;99.90
3942;DHT22;1985;48.592;8.850;2022-11-15T03:24:47;7.70;99.90
3942;DHT22;1985;48.592;8.850;2022-11-15T03:27:19;7.70;99.90
3942;DHT22;1985;48.592;8.850;2022-11-15T03:29:50;7.70;99.90
3942;DHT22;1985;48.592;8.850;2022-11-15T03:32:23;7.80;99.90
3942;DHT22;1985;48.592;8.850;2022-11-15T03:34:55;7.90;99.90
3942;DHT22;1985;48.592;8.850;2022-11-15T03:37:29;7.90;99.90
3942;DHT22;1985;48.592;8.850;2022-11-15T03:39:56;7.90;99.90
3942;DHT22;1985;48.592;8.850;2022-11-15T03:45:22;8.00;99.90
3942;DHT22;1985;48.592;8.850;2022-11-15T03:47:53;8.00;99.90
3942;DHT22;1985;48.592;8.850;2022-11-15T03:50:21;8.10;99.90
3942;DHT22;1985;48.592;8.850;2022-11-15T03:52:48;8.20;99.90
3942;DHT22;1985;48.592;8.850;2022-11-15T03:55:18;8.30;99.90
3942;DHT22;1985;48.592;8.850;2022-11-15T03:57:43;8.40;99.90
3942;DHT22;1985;48.592;8.850;2022-11-15T04:00:10;8.30;99.90
3942;DHT22;1985;48.592;8.850;2022-11-15T04:02:36;8.40;99.90
3942;DHT22;1985;48.592;8.850;2022-11-15T04:05:02;8.40;99.90
3942;DHT22;1985;48.592;8.850;2022-11-15T04:07:28;8.40;99.90
3942;DHT22;1985;48.592;8.850;2022-11-15T04:09:54;8.50;99.90
3942;DHT22;1985;48.592;8.850;2022-11-15T04:12:32;8.50;99.90
3942;DHT22;1985;48.592;8.850;2022-11-15T04:15:20;8.30;99.90
3942;DHT22;1985;48.592;8.850;2022-11-15T04:17:54;8.30;99.90
3942;DHT22;1985;48.592;8.850;2022-11-15T04:23:10;8.30;99.90
3942;DHT22;1985;48.592;8.850;2022-11-15T04:25:56;8.30;99.90
3942;DHT22;1985;48.592;8.850;2022-11-15T04:28:22;8.20;99.90
3942;DHT22;1985;48.592;8.850;2022-11-15T04:30:48;8.20;99.90
3942;DHT22;1985;48.592;8.850;2022-11-15T04:33:13;8.20;99.90
3942;DHT22;1985;48.592;8.850;2022-11-15T04:35:39;8.20;99.90
3942;DHT22;1985;48.592;8.850;2022-11-15T04:38:07;8.30;99.90
3942;DHT22;1985;48.592;8.850;2022-11-15T04:40:33;8.30;99.90
3942;DHT22;1985;48.592;8.850;2022-11-15T04:42:58;8.40;99.90
3942;DHT22;1985;48.592;8.850;2022-11-15T04:45:24;8.40;99.90
3942;DHT22;1985;48.592;8.850;2022-11-15T04:47:50;8.40;99.90
3942;DHT22;1985;48.592;8.850;2022-11-15T04:50:16;8.40;99.90
3942;DHT22;1985;48.592;8.850;2022-11-15T04:52:50;8.50;99.90
3942;DHT22;1985;48.592;8.850;2022-11-15T04:55:16;8.50;99.90
3942;DHT22;1985;48.592;8.850;2022-11-15T04:57:42;8.60;99.90
3942;DHT22;1985;48.592;8.850;2022-11-15T05:00:11;8.60;99.90
3942;DHT22;1985;48.592;8.850;2022-11-15T05:02:37;8.60;99.90
3942;DHT22;1985;48.592;8.850;2022-11-15T05:05:24;8.60;99.90
3942;DHT22;1985;48.592;8.850;2022-11-15T05:07:50;8.60;99.90
3942;DHT22;1985;48.592;8.850;2022-11-15T05:10:16;8.60;99.90
3942;DHT22;1985;48.592;8.850;2022-11-15T05:12:42;8.60;99.90
3942;DHT22;1985;48.592;8.850;2022-11-15T05:15:08;8.60;99.90
3942;DHT22;1985;48.592;8.850;2022-11-15T05:17:34;8.60;99.90
3942;DHT22;1985;48.592;8.850;2022-11-15T05:19:59;8.60;99.90
3942;DHT22;1985;48.592;8.850;2022-11-15T05:22:25;8.60;99.90
3942;DHT22;1985;48.592;8.850;2022-11-15T05:24:51;8.60;99.90
3942;DHT22;1985;48.592;8.850;2022-11-15T05:27:16;8.50;99.90
3942;DHT22;1985;48.592;8.850;2022-11-15T05:29:42;8.50;99.90
3942;DHT22;1985;48.592;8.850;2022-11-15T05:32:09;8.40;99.90
3942;DHT22;1985;48.592;8.850;2022-11-15T05:34:37;8.40;99.90
3942;DHT22;1985;48.592;8.850;2022-11-15T05:37:03;8.40;99.90
3942;DHT22;1985;48.592;8.850;2022-11-15T05:39:29;8.40;99.90
3942;DHT22;1985;48.592;8.850;2022-11-15T05:41:59;8.30;99.90
3942;DHT22;1985;48.592;8.850;2022-11-15T05:44:27;8.30;99.90
3942;DHT22;1985;48.592;8.850;2022-11-15T05:46:54;8.30;99.90
3942;DHT22;1985;48.592;8.850;2022-11-15T05:49:23;8.30;99.90
3942;DHT22;1985;48.592;8.850;2022-11-15T05:51:50;8.20;99.90
3942;DHT22;1985;48.592;8.850;2022-11-15T05:54:17;8.10;99.90
3942;DHT22;1985;48.592;8.850;2022-11-15T05:56:45;8.10;99.90
3942;DHT22;1985;48.592;8.850;2022-11-15T05:59:11;8.10;99.90
3942;DHT22;1985;48.592;8.850;2022-11-15T06:01:37;8.10;99.90
3942;DHT22;1985;48.592;8.850;2022-11-15T06:04:03;8.10;99.90
3942;DHT22;1985;48.592;8.850;2022-11-15T06:06:29;8.10;99.90
3942;DHT22;1985;48.592;8.850;2022-11-15T06:08:55;8.10;99.90
3942;DHT22;1985;48.592;8.850;2022-11-15T06:11:20;8.00;99.90
3942;DHT22;1985;48.592;8.850;2022-11-15T06:13:46;8.00;99.90
3942;DHT22;1985;48.592;8.850;2022-11-15T06:16:11;8.00;99.90
3942;DHT22;1985;48.592;8.850;2022-11-15T06:18:37;8.00;99.90
3942;DHT22;1985;48.592;8.850;2022-11-15T06:21:03;8.00;99.90
3942;DHT22;1985;48.592;8.850;2022-11-15T06:23:32;8.00;99.90
3942;DHT22;1985;48.592;8.850;2022-11-15T06:25:59;8.10;99.90
3942;DHT22;1985;48.592;8.850;2022-11-15T06:28:28;8.20;99.90
3942;DHT22;1985;48.592;8.850;2022-11-15T06:30:54;8.20;99.90
3942;DHT22;1985;48.592;8.850;2022-11-15T06:33:20;8.20;99.90
3942;DHT22;1985;48.592;8.850;2022-11-15T06:35:46;8.30;99.90
3942;DHT22;1985;48.592;8.850;2022-11-15T06:38:12;8.30;99.90
3942;DHT22;1985;48.592;8.850;2022-11-15T06:40:39;8.20;99.90
3942;DHT22;1985;48.592;8.850;2022-11-15T06:43:05;8.20;99.90
3942;DHT22;1985;48.592;8.850;2022-11-15T06:45:32;8.10;99.90
3942;DHT22;1985;48.592;8.850;2022-11-15T06:47:58;8.10;99.90
3942;DHT22;1985;48.592;8.850;2022-11-15T06:50:24;8.10;99.90
3942;DHT22;1985;48.592;8.850;2022-11-15T06:52:49;8.00;99.90
3942;DHT22;1985;48.592;8.850;2022-11-15T06:55:15;7.90;99.90
3942;DHT22;1985;48.592;8.850;2022-11-15T06:57:48;7.80;99.90
3942;DHT22;1985;48.592;8.850;2022-11-15T07:00:15;7.70;99.90
3942;DHT22;1985;48.592;8.850;2022-11-15T07:02:41;7.60;99.90
3942;DHT22;1985;48.592;8.850;2022-11-15T07:05:07;7.60;99.90
3942;DHT22;1985;48.592;8.850;2022-11-15T07:07:32;7.70;99.90
3942;DHT22;1985;48.592;8.850;2022-11-15T07:09:58;7.70;99.90
3942;DHT22;1985;48.592;8.850;2022-11-15T07:12:23;7.90;99.90
3942;DHT22;1985;48.592;8.850;2022-11-15T07:14:49;8.00;99.90
3942;DHT22;1985;48.592;8.850;2022-11-15T07:17:15;8.10;99.90
3942;DHT22;1985;48.592;8.850;2022-11-15T07:19:40;8.20;99.90
3942;DHT22;1985;48.592;8.850;2022-11-15T07:22:06;8.40;99.90
3942;DHT22;1985;48.592;8.850;2022-11-15T07:24:31;8.50;99.90
3942;DHT22;1985;48.592;8.850;2022-11-15T07:26:57;8.60;99.90
3942;DHT22;1985;48.592;8.850;2022-11-15T07:29:22;8.70;99.90
3942;DHT22;1985;48.592;8.850;2022-11-15T07:31:49;8.80;99.90
3942;DHT22;1985;48.592;8.850;2022-11-15T07:34:15;8.80;99.90
3942;DHT22;1985;48.592;8.850;2022-11-15T07:36:41;8.80;99.90
3942;DHT22;1985;48.592;8.850;2022-11-15T07:39:07;8.80;99.90
3942;DHT22;1985;48.592;8.850;2022-11-15T07:41:32;8.40;99.90
3942;DHT22;1985;48.592;8.850;2022-11-15T07:43:58;8.20;99.90
3942;DHT22;1985;48.592;8.850;2022-11-15T07:46:24;8.20;99.90
3942;DHT22;1985;48.592;8.850;2022-11-15T07:48:49;8.50;99.90
3942;DHT22;1985;48.592;8.850;2022-11-15T07:51:16;8.60;99.90
3942;DHT22;1985;48.592;8.850;2022-11-15T07:53:43;8.70;99.90
3942;DHT22;1985;48.592;8.850;2022-11-15T07:56:09;8.90;99.90
3942;DHT22;1985;48.592;8.850;2022-11-15T07:58:35;9.00;99.90
3942;DHT22;1985;48.592;8.850;2022-11-15T08:01:05;9.20;99.90
3942;DHT22;1985;48.592;8.850;2022-11-15T08:03:32;9.30;99.90
3942;DHT22;1985;48.592;8.850;2022-11-15T08:05:58;9.40;99.90
3942;DHT22;1985;48.592;8.850;2022-11-15T08:08:24;9.50;99.90
3942;DHT22;1985;48.592;8.850;2022-11-15T08:10:49;9.80;99.90
3942;DHT22;1985;48.592;8.850;2022-11-15T08:13:15;10.00;99.90
3942;DHT22;1985;48.592;8.850;2022-11-15T08:15:41;10.10;99.90
3942;DHT22;1985;48.592;8.850;2022-11-15T08:18:13;10.20;99.90
3942;DHT22;1985;48.592;8.850;2022-11-15T08:20:40;10.50;99.90
3942;DHT22;1985;48.592;8.850;2022-11-15T08:23:06;10.80;99.90
3942;DHT22;1985;48.592;8.850;2022-11-15T08:25:33;11.00;99.90
3942;DHT22;1985;48.592;8.850;2022-11-15T08:28:02;11.20;99.90
3942;DHT22;1985;48.592;8.850;2022-11-15T08:30:29;11.50;99.90
3942;DHT22;1985;48.592;8.850;2022-11-15T08:32:57;11.90;99.90
3942;DHT22;1985;48.592;8.850;2022-11-15T08:35:23;12.20;99.90
3942;DHT22;1985;48.592;8.850;2022-11-15T08:37:49;12.40;99.90
3942;DHT22;1985;48.592;8.850;2022-11-15T08:40:15;12.60;99.90
3942;DHT22;1985;48.592;8.850;2022-11-15T08:42:41;12.70;99.90
3942;DHT22;1985;48.592;8.850;2022-11-15T08:45:07;12.70;99.90
3942;DHT22;1985;48.592;8.850;2022-11-15T08:47:33;12.70;99.90
3942;DHT22;1985;48.592;8.850;2022-11-15T08:49:59;12.80;99.90
3942;DHT22;1985;48.592;8.850;2022-11-15T08:52:25;12.80;99.90
3942;DHT22;1985;48.592;8.850;2022-11-15T08:54:50;12.70;99.90
3942;DHT22;1985;48.592;8.850;2022-11-15T08:57:16;12.70;99.90
3942;DHT22;1985;48.592;8.850;2022-11-15T08:59:42;12.60;99.90
3942;DHT22;1985;48.592;8.850;2022-11-15T09:02:12;12.40;99.90
3942;DHT22;1985;48.592;8.850;2022-11-15T09:04:42;12.20;99.90
3942;DHT22;1985;48.592;8.850;2022-11-15T09:07:09;12.30;99.90
3942;DHT22;1985;48.592;8.850;2022-11-15T09:09:35;12.50;99.90
3942;DHT22;1985;48.592;8.850;2022-11-15T09:12:01;12.60;99.90
3942;DHT22;1985;48.592;8.850;2022-11-15T09:14:26;12.80;99.90
3942;DHT22;1985;48.592;8.850;2022-11-15T09:16:52;13.00;99.90
3942;DHT22;1985;48.592;8.850;2022-11-15T09:19:18;13.10;99.90
3942;DHT22;1985;48.592;8.850;2022-11-15T09:21:43;13.40;99.90
3942;DHT22;1985;48.592;8.850;2022-11-15T09:24:09;13.50;99.90
3942;DHT22;1985;48.592;8.850;2022-11-15T09:26:34;13.70;99.90
3942;DHT22;1985;48.592;8.850;2022-11-15T09:29:00;13.50;99.90
3942;DHT22;1985;48.592;8.850;2022-11-15T09:31:27;13.40;99.90
3942;DHT22;1985;48.592;8.850;2022-11-15T09:33:52;13.30;99.90
3942;DHT22;1985;48.592;8.850;2022-11-15T09:36:18;13.30;99.90
3942;DHT22;1985;48.592;8.850;2022-11-15T09:38:44;13.20;99.90
3942;DHT22;1985;48.592;8.850;2022-11-15T09:48:55;12.90;99.90
3942;DHT22;1985;48.592;8.850;2022-11-15T09:51:36;12.90;99.90
3942;DHT22;1985;48.592;8.850;2022-11-15T09:54:13;12.80;99.90
3942;DHT22;1985;48.592;8.850;2022-11-15T09:56:43;12.70;99.90
3942;DHT22;1985;48.592;8.850;2022-11-15T10:05:00;12.80;99.90
3942;DHT22;1985;48.592;8.850;2022-11-15T10:12:51;12.90;99.90
3942;DHT22;1985;48.592;8.850;2022-11-15T10:15:18;12.90;99.90
3942;DHT22;1985;48.592;8.850;2022-11-15T10:20:37;12.70;99.90
3942;DHT22;1985;48.592;8.850;2022-11-15T10:23:06;12.70;99.90
3942;DHT22;1985;48.592;8.850;2022-11-15T10:25:35;12.80;99.90
3942;DHT22;1985;48.592;8.850;2022-11-15T10:28:11;12.90;99.90
3942;DHT22;1985;48.592;8.850;2022-11-15T10:30:48;13.00;99.90
3942;DHT22;1985;48.592;8.850;2022-11-15T10:33:33;13.00;99.90
3942;DHT22;1985;48.592;8.850;2022-11-15T10:49:29;12.60;99.90
3942;DHT22;1985;48.592;8.850;2022-11-15T10:56:57;12.40;99.90
3942;DHT22;1985;48.592;8.850;2022-11-15T10:59:33;12.40;99.90
3942;DHT22;1985;48.592;8.850;2022-11-15T11:02:01;12.20;99.90
3942;DHT22;1985;48.592;8.850;2022-11-15T11:04:27;12.10;99.90
3942;DHT22;1985;48.592;8.850;2022-11-15T11:06:58;12.00;99.90
3942;DHT22;1985;48.592;8.850;2022-11-15T11:09:36;12.10;99.90
3942;DHT22;1985;48.592;8.850;2022-11-15T11:12:04;12.10;99.90
3942;DHT22;1985;48.592;8.850;2022-11-15T11:14:32;12.20;99.90
3942;DHT22;1985;48.592;8.850;2022-11-15T11:25:48;12.50;99.90
3942;DHT22;1985;48.592;8.850;2022-11-15T11:36:49;13.00;99.90
3942;DHT22;1985;48.592;8.850;2022-11-15T11:48:03;13.40;99.90
3942;DHT22;1985;48.592;8.850;2022-11-15T11:50:27;13.40;99.90
3942;DHT22;1985;48.592;8.850;2022-11-15T11:55:57;13.30;99.90
3942;DHT22;1985;48.592;8.850;2022-11-15T12:06:56;13.00;99.90
3942;DHT22;1985;48.592;8.850;2022-11-15T12:09:42;13.20;99.90
3942;DHT22;1985;48.592;8.850;2022-11-15T12:12:30;13.20;99.90
3942;DHT22;1985;48.592;8.850;2022-11-15T12:17:36;13.30;99.90
3942;DHT22;1985;48.592;8.850;2022-11-15T12:20:12;13.30;99.90
3942;DHT22;1985;48.592;8.850;2022-11-15T12:25:39;13.50;99.90
3942;DHT22;1985;48.592;8.850;2022-11-15T12:33:58;14.20;99.90
3942;DHT22;1985;48.592;8.850;2022-11-15T12:38:56;14.40;99.90
3942;DHT22;1985;48.592;8.850;2022-11-15T12:41:27;14.50;99.90
3942;DHT22;1985;48.592;8.850;2022-11-15T12:43:54;14.60;99.90
3942;DHT22;1985;48.592;8.850;2022-11-15T13:17:53;13.60;99.90
3942;DHT22;1985;48.592;8.850;2022-11-15T13:20:30;13.60;99.90
3942;DHT22;1985;48.592;8.850;2022-11-15T13:28:17;12.90;99.90
3942;DHT22;1985;48.592;8.850;2022-11-15T13:35:57;12.50;99.90
3942;DHT22;1985;48.592;8.850;2022-11-15T13:38:37;12.60;99.90
3942;DHT22;1985;48.592;8.850;2022-11-15T13:41:25;12.50;99.90
3942;DHT22;1985;48.592;8.850;2022-11-15T13:43:53;12.60;99.90
3942;DHT22;1985;48.592;8.850;2022-11-15T13:46:27;12.70;99.90
3942;DHT22;1985;48.592;8.850;2022-11-15T13:48:59;12.70;99.90
3942;DHT22;1985;48.592;8.850;2022-11-15T13:56:37;12.70;99.90
3942;DHT22;1985;48.592;8.850;2022-11-15T13:59:15;12.70;99.90
3942;DHT22;1985;48.592;8.850;2022-11-15T14:01:42;12.90;99.90
3942;DHT22;1985;48.592;8.850;2022-11-15T14:04:13;13.00;99.90
3942;DHT22;1985;48.592;8.850;2022-11-15T14:06:51;13.00;99.90
3942;DHT22;1985;48.592;8.850;2022-11-15T14:09:37;12.90;99.90
3942;DHT22;1985;48.592;8.850;2022-11-15T14:14:50;12.80;99.90
3942;DHT22;1985;48.592;8.850;2022-11-15T14:19:53;12.80;99.90
3942;DHT22;1985;48.592;8.850;2022-11-15T14:27:40;12.70;99.90
3942;DHT22;1985;48.592;8.850;2022-11-15T14:30:13;12.70;99.90
3942;DHT22;1985;48.592;8.850;2022-11-15T14:32:49;12.70;99.90
3942;DHT22;1985;48.592;8.850;2022-11-15T14:35:18;12.70;99.90
3942;DHT22;1985;48.592;8.850;2022-11-15T14:37:45;12.70;99.90
3942;DHT22;1985;48.592;8.850;2022-11-15T14:40:19;12.80;99.90
3942;DHT22;1985;48.592;8.850;2022-11-15T14:42:48;12.80;99.90
3942;DHT22;1985;48.592;8.850;2022-11-15T14:45:16;12.80;99.90
3942;DHT22;1985;48.592;8.850;2022-11-15T14:47:43;12.80;99.90
3942;DHT22;1985;48.592;8.850;2022-11-15T14:50:21;12.80;99.90
3942;DHT22;1985;48.592;8.850;2022-11-15T14:52:48;12.70;99.90
3942;DHT22;1985;48.592;8.850;2022-11-15T14:57:45;12.40;99.90
3942;DHT22;1985;48.592;8.850;2022-11-15T15:00:11;12.40;99.90
3942;DHT22;1985;48.592;8.850;2022-11-15T15:02:37;12.40;99.90
3942;DHT22;1985;48.592;8.850;2022-11-15T15:05:17;12.40;99.90
3942;DHT22;1985;48.592;8.850;2022-11-15T15:07:43;12.50;99.90
3942;DHT22;1985;48.592;8.850;2022-11-15T15:10:09;12.60;99.90
3942;DHT22;1985;48.592;8.850;2022-11-15T15:12:35;12.60;99.90
3942;DHT22;1985;48.592;8.850;2022-11-15T15:15:01;12.60;99.90
3942;DHT22;1985;48.592;8.850;2022-11-15T15:17:26;12.70;99.90
3942;DHT22;1985;48.592;8.850;2022-11-15T15:19:52;12.60;99.90
3942;DHT22;1985;48.592;8.850;2022-11-15T15:22:19;12.70;99.90
3942;DHT22;1985;48.592;8.850;2022-11-15T15:24:48;12.70;99.90
3942;DHT22;1985;48.592;8.850;2022-11-15T15:27:14;12.70;99.90
3942;DHT22;1985;48.592;8.850;2022-11-15T15:29:40;12.80;99.90
3942;DHT22;1985;48.592;8.850;2022-11-15T15:32:06;12.70;99.90
3942;DHT22;1985;48.592;8.850;2022-11-15T15:34:32;12.70;99.90
3942;DHT22;1985;48.592;8.850;2022-11-15T15:37:27;12.70;99.90
3942;DHT22;1985;48.592;8.850;2022-11-15T15:39:55;12.70;99.90
3942;DHT22;1985;48.592;8.850;2022-11-15T15:42:22;12.70;99.90
3942;DHT22;1985;48.592;8.850;2022-11-15T15:44:48;12.60;99.90
3942;DHT22;1985;48.592;8.850;2022-11-15T15:47:19;12.60;99.90
3942;DHT22;1985;48.592;8.850;2022-11-15T15:49:46;12.60;99.90
3942;DHT22;1985;48.592;8.850;2022-11-15T15:52:12;12.60;99.90
3942;DHT22;1985;48.592;8.850;2022-11-15T15:54:38;12.70;99.90
3942;DHT22;1985;48.592;8.850;2022-11-15T15:57:05;12.70;99.90
3942;DHT22;1985;48.592;8.850;2022-11-15T15:59:31;12.70;99.90
3942;DHT22;1985;48.592;8.850;2022-11-15T16:01:57;12.70;99.90
3942;DHT22;1985;48.592;8.850;2022-11-15T16:04:23;12.70;99.90
3942;DHT22;1985;48.592;8.850;2022-11-15T16:06:49;12.70;99.90
3942;DHT22;1985;48.592;8.850;2022-11-15T16:09:18;12.70;99.90
3942;DHT22;1985;48.592;8.850;2022-11-15T16:12:04;12.60;99.90
3942;DHT22;1985;48.592;8.850;2022-11-15T16:14:31;12.50;99.90
3942;DHT22;1985;48.592;8.850;2022-11-15T16:16:56;12.40;99.90
3942;DHT22;1985;48.592;8.850;2022-11-15T16:19:22;12.40;99.90
3942;DHT22;1985;48.592;8.850;2022-11-15T16:21:48;12.30;99.90
3942;DHT22;1985;48.592;8.850;2022-11-15T16:24:13;12.10;99.90
3942;DHT22;1985;48.592;8.850;2022-11-15T16:26:39;11.90;99.90
3942;DHT22;1985;48.592;8.850;2022-11-15T16:29:04;11.80;99.90
3942;DHT22;1985;48.592;8.850;2022-11-15T16:31:32;11.90;99.90
3942;DHT22;1985;48.592;8.850;2022-11-15T16:33:57;11.80;99.90
3942;DHT22;1985;48.592;8.850;2022-11-15T16:36:25;11.90;99.90
3942;DHT22;1985;48.592;8.850;2022-11-15T16:38:51;12.00;99.90
3942;DHT22;1985;48.592;8.850;2022-11-15T16:41:18;12.00;99.90
3942;DHT22;1985;48.592;8.850;2022-11-15T16:43:45;11.90;99.90
3942;DHT22;1985;48.592;8.850;2022-11-15T16:46:19;11.80;99.90
3942;DHT22;1985;48.592;8.850;2022-11-15T16:48:45;11.90;99.90
3942;DHT22;1985;48.592;8.850;2022-11-15T16:51:11;11.80;99.90
3942;DHT22;1985;48.592;8.850;2022-11-15T16:53:37;11.90;99.90
3942;DHT22;1985;48.592;8.850;2022-11-15T16:56:03;12.00;99.90
3942;DHT22;1985;48.592;8.850;2022-11-15T16:58:29;12.00;99.90
3942;DHT22;1985;48.592;8.850;2022-11-15T17:00:55;12.00;99.90
3942;DHT22;1985;48.592;8.850;2022-11-15T17:03:24;12.00;99.90
3942;DHT22;1985;48.592;8.850;2022-11-15T17:05:50;12.10;99.90
3942;DHT22;1985;48.592;8.850;2022-11-15T17:08:16;12.10;99.90
3942;DHT22;1985;48.592;8.850;2022-11-15T17:10:41;12.20;99.90
3942;DHT22;1985;48.592;8.850;2022-11-15T17:13:16;12.20;99.90
3942;DHT22;1985;48.592;8.850;2022-11-15T17:15:42;12.20;99.90
3942;DHT22;1985;48.592;8.850;2022-11-15T17:18:11;12.30;99.90
3942;DHT22;1985;48.592;8.850;2022-11-15T17:20:40;12.30;99.90
3942;DHT22;1985;48.592;8.850;2022-11-15T17:23:11;12.30;99.90
3942;DHT22;1985;48.592;8.850;2022-11-15T17:25:38;12.40;99.90
3942;DHT22;1985;48.592;8.850;2022-11-15T17:28:04;12.40;99.90
3942;DHT22;1985;48.592;8.850;2022-11-15T17:30:29;12.30;99.90
3942;DHT22;1985;48.592;8.850;2022-11-15T17:32:55;12.30;99.90
3942;DHT22;1985;48.592;8.850;2022-11-15T17:35:21;12.30;99.90
3942;DHT22;1985;48.592;8.850;2022-11-15T17:37:46;12.30;99.90
3942;DHT22;1985;48.592;8.850;2022-11-15T17:40:12;12.40;99.90
3942;DHT22;1985;48.592;8.850;2022-11-15T17:42:41;12.40;99.90
3942;DHT22;1985;48.592;8.850;2022-11-15T17:45:07;12.40;99.90
3942;DHT22;1985;48.592;8.850;2022-11-15T17:47:33;12.30;99.90
3942;DHT22;1985;48.592;8.850;2022-11-15T17:49:59;12.30;99.90
3942;DHT22;1985;48.592;8.850;2022-11-15T17:52:24;12.20;99.90
3942;DHT22;1985;48.592;8.850;2022-11-15T17:54:50;12.20;99.90
3942;DHT22;1985;48.592;8.850;2022-11-15T17:57:16;12.20;99.90
3942;DHT22;1985;48.592;8.850;2022-11-15T17:59:41;12.10;99.90
3942;DHT22;1985;48.592;8.850;2022-11-15T18:02:08;12.20;99.90
3942;DHT22;1985;48.592;8.850;2022-11-15T18:04:34;12.20;99.90
3942;DHT22;1985;48.592;8.850;2022-11-15T18:06:59;12.20;99.90
3942;DHT22;1985;48.592;8.850;2022-11-15T18:09:25;12.20;99.90
3942;DHT22;1985;48.592;8.850;2022-11-15T18:11:51;12.20;99.90
3942;DHT22;1985;48.592;8.850;2022-11-15T18:14:18;12.30;99.90
3942;DHT22;1985;48.592;8.850;2022-11-15T18:16:44;12.30;99.90
3942;DHT22;1985;48.592;8.850;2022-11-15T18:19:10;12.30;99.90
3942;DHT22;1985;48.592;8.850;2022-11-15T18:21:38;12.20;99.90
3942;DHT22;1985;48.592;8.850;2022-11-15T18:24:32;12.20;99.90
3942;DHT22;1985;48.592;8.850;2022-11-15T18:27:00;12.10;99.90
3942;DHT22;1985;48.592;8.850;2022-11-15T18:29:26;12.10;99.90
3942;DHT22;1985;48.592;8.850;2022-11-15T18:31:53;12.10;99.90
3942;DHT22;1985;48.592;8.850;2022-11-15T18:34:26;12.10;99.90
3942;DHT22;1985;48.592;8.850;2022-11-15T18:36:56;12.10;99.90
3942;DHT22;1985;48.592;8.850;2022-11-15T18:39:22;12.10;99.90
3942;DHT22;1985;48.592;8.850;2022-11-15T18:41:48;12.10;99.90
3942;DHT22;1985;48.592;8.850;2022-11-15T18:44:14;12.10;99.90
3942;DHT22;1985;48.592;8.850;2022-11-15T18:46:41;12.00;99.90
3942;DHT22;1985;48.592;8.850;2022-11-15T18:49:08;12.00;99.90
3942;DHT22;1985;48.592;8.850;2022-11-15T18:51:35;12.10;99.90
3942;DHT22;1985;48.592;8.850;2022-11-15T18:54:02;12.10;99.90
3942;DHT22;1985;48.592;8.850;2022-11-15T18:56:29;12.10;99.90
3942;DHT22;1985;48.592;8.850;2022-11-15T18:58:58;12.00;99.90
3942;DHT22;1985;48.592;8.850;2022-11-15T19:01:31;11.90;99.90
3942;DHT22;1985;48.592;8.850;2022-11-15T19:04:06;11.90;99.90
3942;DHT22;1985;48.592;8.850;2022-11-15T19:06:36;11.80;99.90
3942;DHT22;1985;48.592;8.850;2022-11-15T19:09:02;11.70;99.90
3942;DHT22;1985;48.592;8.850;2022-11-15T19:11:30;11.60;99.90
3942;DHT22;1985;48.592;8.850;2022-11-15T19:16:24;11.60;99.90
3942;DHT22;1985;48.592;8.850;2022-11-15T19:18:57;11.60;99.90
3942;DHT22;1985;48.592;8.850;2022-11-15T19:21:24;11.60;99.90
3942;DHT22;1985;48.592;8.850;2022-11-15T19:23:50;11.70;99.90
3942;DHT22;1985;48.592;8.850;2022-11-15T19:26:17;11.70;99.90